Terminal Aerodrome Forecast
Issued by NWS Portland, OR

Home | Current Version | Previous Version | Text Only | Print | Product List | Glossary On
Versions: 1 2 3 4 5 6 7 8 9 10 11 12 13 14 15 16 17 18 19 20 21 22 23 24 25 26 27 28 29 30 31 32 33 34 35
000
FTUS46 KPQR 250532
TAFTTD
TAF
KTTD 250532Z 2506/2606 09006KT P6SM SCT050
     FM250900 09004KT 5SM BR SCT002 SCT050
     FM251100 VRB03KT 2SM BR BKN002
      TEMPO 2511/2515 1/4SM FG VV002
     FM251800 VRB02KT P6SM SCT005 SCT050
     FM252100 30005KT P6SM FEW100 BKN250=

USA.gov is the U.S. government's official web portal to all federal, state and local government web resources and services.